Time;durP1;ratioP1;P1;durP2;ratioP2;P2;SDS_P1;SDS_P2;PMS_P1;PMS_P2;Temp;Humidity;BMP_temperature;BMP_pressure;BME280_temperature;BME280_humidity;BME280_pressure;Samples;Min_cycle;Max_cycle;Signal;HPM_P1;HPM_P2
2021/01/17 00:02:16;;;;;;;5.30;0.82;;;25.50;50.80;;;;;;5035917;28;20049;-60
2021/01/17 00:04:44;;;;;;;4.90;0.88;;;25.60;51.40;;;;;;5067373;28;20620;-54
2021/01/17 00:07:11;;;;;;;1.88;0.80;;;25.50;51.40;;;;;;5070722;28;20028;-52
2021/01/17 00:09:38;;;;;;;4.97;0.82;;;25.60;51.40;;;;;;5071073;28;20390;-63
2021/01/17 00:12:08;;;;;;;2.10;0.85;;;25.60;51.40;;;;;;5071104;28;20035;-61
2021/01/17 00:14:36;;;;;;;2.13;0.85;;;25.70;51.80;;;;;;5066039;28;20049;-62
2021/01/17 00:17:04;;;;;;;2.78;1.50;;;25.70;51.60;;;;;;5071957;28;20050;-61
2021/01/17 00:19:31;;;;;;;9.43;4.38;;;25.70;51.60;;;;;;5073797;28;20032;-63
2021/01/17 00:21:59;;;;;;;10.38;6.00;;;25.80;51.50;;;;;;5073748;28;20081;-65
2021/01/17 00:24:26;;;;;;;5.15;3.92;;;25.80;51.60;;;;;;5073373;28;20108;-63
2021/01/17 00:26:55;;;;;;;12.98;10.48;;;25.80;51.90;;;;;;5073241;28;20104;-64
2021/01/17 00:29:23;;;;;;;8.40;3.92;;;25.80;51.70;;;;;;5068484;28;20097;-59
2021/01/17 00:31:51;;;;;;;9.27;2.70;;;25.80;52.70;;;;;;5074140;28;20032;-58
2021/01/17 00:34:18;;;;;;;10.20;3.08;;;25.70;53.00;;;;;;5073911;28;20467;-60
2021/01/17 00:36:46;;;;;;;6.15;1.90;;;25.80;52.80;;;;;;5073218;28;20025;-59
2021/01/17 00:39:13;;;;;;;12.73;3.22;;;25.70;53.00;;;;;;5073975;28;20454;-61
2021/01/17 00:41:41;;;;;;;7.88;2.33;;;25.80;52.70;;;;;;5071890;28;20055;-56
2021/01/17 00:44:08;;;;;;;7.20;3.20;;;25.90;53.10;;;;;;5071804;28;20330;-57
2021/01/17 00:46:39;;;;;;;12.07;5.30;;;26.20;53.00;;;;;;5073090;28;20046;-59
2021/01/17 00:49:07;;;;;;;8.27;2.65;;;25.80;52.70;;;;;;5073238;28;20443;-55
2021/01/17 00:51:44;;;;;;;8.90;3.90;;;26.00;53.60;;;;;;5072457;28;20029;-56
2021/01/17 00:54:13;;;;;;;11.55;5.22;;;26.00;53.80;;;;;;5072950;28;20029;-60
2021/01/17 00:56:44;;;;;;;12.80;6.88;;;26.10;54.50;;;;;;5072688;28;20036;-61
2021/01/17 00:59:12;;;;;;;12.90;3.63;;;25.90;53.40;;;;;;5072745;28;20058;-60
2021/01/17 01:01:44;;;;;;;6.97;5.13;;;25.90;53.80;;;;;;5072780;28;20077;-57
2021/01/17 01:04:12;;;;;;;14.13;5.05;;;25.90;53.80;;;;;;5072598;28;20043;-55
2021/01/17 01:06:40;;;;;;;8.98;3.03;;;26.00;53.90;;;;;;5072198;28;20024;-56
2021/01/17 01:09:13;;;;;;;10.82;3.67;;;26.10;54.00;;;;;;5072247;28;20100;-56
2021/01/17 01:11:41;;;;;;;7.95;4.22;;;26.20;53.70;;;;;;5072445;28;20021;-55
2021/01/17 01:14:09;;;;;;;7.63;3.58;;;26.40;53.80;;;;;;5072749;28;20230;-56
2021/01/17 01:16:37;;;;;;;7.38;3.80;;;26.40;54.10;;;;;;5072792;28;20021;-56
2021/01/17 01:19:04;;;;;;;15.02;3.20;;;26.50;54.30;;;;;;5071238;28;20039;-54
2021/01/17 01:21:34;;;;;;;10.07;2.78;;;26.50;54.20;;;;;;5071774;28;20098;-58
2021/01/17 01:24:02;;;;;;;8.10;2.80;;;26.50;54.50;;;;;;5072506;28;20028;-53
2021/01/17 01:26:39;;;;;;;9.23;2.83;;;26.50;54.40;;;;;;5072431;28;20087;-59
2021/01/17 01:29:07;;;;;;;8.80;2.50;;;26.50;54.10;;;;;;5072287;28;20028;-58
2021/01/17 01:31:36;;;;;;;8.48;2.53;;;26.60;54.40;;;;;;5072225;28;20033;-56
2021/01/17 01:34:07;;;;;;;10.27;2.55;;;26.60;54.30;;;;;;5072417;28;20421;-57
2021/01/17 01:36:39;;;;;;;8.73;2.60;;;26.70;54.90;;;;;;5072465;28;20016;-56
2021/01/17 01:39:08;;;;;;;17.45;2.30;;;26.70;54.10;;;;;;5072576;28;20060;-52
2021/01/17 01:41:39;;;;;;;10.95;3.13;;;26.70;54.10;;;;;;5070654;28;20422;-54
2021/01/17 01:44:07;;;;;;;15.40;2.47;;;26.80;54.00;;;;;;5072128;28;20027;-55
2021/01/17 01:46:40;;;;;;;8.95;2.30;;;26.90;54.40;;;;;;5072298;28;20422;-57
2021/01/17 01:49:10;;;;;;;12.52;2.58;;;27.00;54.20;;;;;;5072115;28;20029;-59
2021/01/17 01:51:38;;;;;;;8.52;2.25;;;27.00;54.10;;;;;;5071696;28;20078;-56
2021/01/17 01:54:09;;;;;;;9.82;2.53;;;27.10;54.40;;;;;;5071918;28;20494;-53
2021/01/17 01:56:36;;;;;;;11.23;2.70;;;27.10;53.30;;;;;;5071962;28;20039;-54
2021/01/17 01:59:05;;;;;;;7.97;2.03;;;27.10;54.60;;;;;;5071822;28;20063;-55
2021/01/17 02:01:33;;;;;;;5.95;1.67;;;27.10;53.20;;;;;;5071719;28;20080;-54
2021/01/17 02:04:01;;;;;;;12.65;2.13;;;27.10;53.10;;;;;;5071798;28;20032;-55
2021/01/17 02:06:29;;;;;;;13.23;2.42;;;27.10;55.20;;;;;;5071707;28;20082;-56
2021/01/17 02:09:23;;;;;;;6.53;1.77;;;27.20;55.80;;;;;;5071882;28;20028;-59
2021/01/17 02:12:14;;;;;;;8.48;2.50;;;27.10;55.50;;;;;;5071504;28;20067;-62
2021/01/17 02:14:52;;;;;;;11.65;2.25;;;27.10;55.80;;;;;;5070851;28;20048;-57
2021/01/17 02:17:22;;;;;;;10.95;2.67;;;27.10;55.70;;;;;;5071970;28;20402;-63
2021/01/17 02:20:14;;;;;;;12.20;6.18;;;27.10;55.50;;;;;;5071603;28;20568;-58
2021/01/17 02:22:48;;;;;;;15.65;7.43;;;27.20;55.90;;;;;;5071779;28;20052;-59
2021/01/17 02:25:17;;;;;;;10.27;3.75;;;27.20;55.30;;;;;;5071762;28;20021;-65
2021/01/17 02:27:47;;;;;;;14.48;6.47;;;27.30;55.30;;;;;;5071721;28;20033;-68
2021/01/17 02:30:16;;;;;;;18.17;8.65;;;27.40;54.00;;;;;;5072174;28;20419;-69
2021/01/17 02:32:50;;;;;;;14.50;5.10;;;27.60;54.70;;;;;;5072306;28;20086;-60
2021/01/17 02:35:18;;;;;;;25.92;11.63;;;27.70;53.40;;;;;;5071481;28;20408;-66
2021/01/17 02:37:54;;;;;;;19.13;8.38;;;27.70;53.40;;;;;;5071272;28;20395;-65
2021/01/17 02:41:05;;;;;;;14.45;5.78;;;27.70;52.60;;;;;;5071910;28;20020;-62
2021/01/17 02:43:34;;;;;;;17.23;6.83;;;27.70;53.00;;;;;;5071374;28;20032;-67
2021/01/17 02:46:01;;;;;;;15.30;8.45;;;27.60;52.90;;;;;;5071471;28;20662;-62
2021/01/17 02:48:28;;;;;;;24.75;9.63;;;27.60;54.10;;;;;;5071443;28;20048;-67
2021/01/17 02:50:56;;;;;;;20.10;8.65;;;27.60;54.70;;;;;;5071388;28;20028;-64
2021/01/17 02:53:50;;;;;;;14.82;6.95;;;27.60;55.20;;;;;;5071268;28;20047;-58
2021/01/17 02:56:18;;;;;;;15.63;7.82;;;27.60;55.30;;;;;;5071475;28;20103;-67
2021/01/17 02:58:50;;;;;;;14.65;5.90;;;27.50;54.40;;;;;;5070274;28;20040;-66
2021/01/17 03:01:26;;;;;;;;;;;27.30;55.70;;;;;;5074617;28;20040;-68
2021/01/17 03:04:01;;;;;;;13.93;6.10;;;27.30;55.70;;;;;;5075255;28;19904;-62
2021/01/17 03:06:29;;;;;;;15.48;6.88;;;27.30;55.40;;;;;;5075674;28;20063;-63
2021/01/17 03:08:57;;;;;;;14.15;6.30;;;27.10;55.30;;;;;;5075312;28;20024;-61
2021/01/17 03:11:24;;;;;;;14.75;6.38;;;27.10;56.80;;;;;;5075203;28;20439;-67
2021/01/17 03:13:53;;;;;;;19.10;6.50;;;27.10;57.00;;;;;;5075259;28;20059;-67
2021/01/17 03:16:20;;;;;;;14.77;5.70;;;27.10;56.80;;;;;;5073281;28;20027;-69
2021/01/17 03:18:47;;;;;;;11.15;4.20;;;27.10;56.90;;;;;;5061916;28;20087;-69
2021/01/17 03:21:15;;;;;;;13.90;3.17;;;27.10;57.70;;;;;;5071473;28;20091;-69
2021/01/17 03:23:42;;;;;;;13.02;4.95;;;27.00;53.50;;;;;;5074656;28;20028;-63
2021/01/17 03:26:09;;;;;;;12.32;4.00;;;26.90;58.20;;;;;;5074971;28;20467;-67
2021/01/17 03:28:37;;;;;;;17.40;4.50;;;26.90;58.30;;;;;;5075126;28;20057;-65
2021/01/17 03:31:04;;;;;;;17.98;4.28;;;26.90;58.80;;;;;;5073812;28;20028;-70
2021/01/17 03:33:31;;;;;;;11.02;3.45;;;26.90;54.30;;;;;;5075112;28;20081;-69
2021/01/17 03:35:59;;;;;;;9.68;3.58;;;26.90;59.10;;;;;;5074959;28;20024;-61
2021/01/17 03:38:26;;;;;;;12.35;3.47;;;26.80;59.10;;;;;;5074450;28;20052;-63
2021/01/17 03:40:53;;;;;;;13.85;3.35;;;26.90;59.10;;;;;;5073857;28;20032;-60
2021/01/17 03:43:22;;;;;;;13.77;4.28;;;26.90;59.20;;;;;;5072492;28;20044;-57
2021/01/17 03:45:49;;;;;;;16.23;3.55;;;26.90;58.20;;;;;;5074216;28;20020;-67
2021/01/17 03:48:17;;;;;;;18.23;3.50;;;26.90;58.50;;;;;;5074985;28;20379;-68
2021/01/17 03:50:44;;;;;;;16.70;3.53;;;26.90;58.30;;;;;;5074708;28;20017;-68
2021/01/17 03:53:11;;;;;;;13.63;2.83;;;26.90;58.20;;;;;;5074864;28;20024;-69
2021/01/17 03:55:39;;;;;;;14.73;2.55;;;26.90;57.70;;;;;;5074849;28;20037;-67
2021/01/17 03:58:06;;;;;;;8.35;3.13;;;26.90;57.10;;;;;;5074993;28;20024;-70
2021/01/17 04:00:33;;;;;;;16.45;3.25;;;26.90;56.60;;;;;;5070814;28;20028;-55
2021/01/17 04:03:01;;;;;;;21.98;3.15;;;27.00;56.90;;;;;;5075429;28;20024;-58
2021/01/17 04:05:28;;;;;;;23.10;3.78;;;27.00;57.00;;;;;;5076091;28;20150;-61
2021/01/17 04:07:56;;;;;;;11.77;3.47;;;27.10;56.80;;;;;;5075428;28;20494;-64
2021/01/17 04:10:23;;;;;;;12.60;2.45;;;27.20;56.80;;;;;;5064515;28;20020;-61
2021/01/17 04:12:50;;;;;;;18.58;3.08;;;27.20;56.80;;;;;;5066470;28;20048;-63
2021/01/17 04:15:18;;;;;;;12.73;2.97;;;27.30;57.50;;;;;;5067474;28;20104;-61
2021/01/17 04:17:48;;;;;;;16.23;3.40;;;27.30;58.90;;;;;;5066109;28;20043;-62
2021/01/17 04:20:16;;;;;;;12.98;2.70;;;27.30;55.40;;;;;;5066392;28;20025;-61
2021/01/17 04:22:43;;;;;;;16.38;2.38;;;27.30;56.00;;;;;;5071429;28;20111;-63
2021/01/17 04:25:11;;;;;;;16.15;2.83;;;27.30;56.10;;;;;;5072574;28;20032;-60
2021/01/17 04:27:39;;;;;;;14.75;3.22;;;27.40;55.80;;;;;;5070046;28;20023;-59
2021/01/17 04:30:07;;;;;;;14.13;3.40;;;27.50;56.40;;;;;;5061835;28;20044;-62
2021/01/17 04:32:38;;;;;;;15.13;3.65;;;27.50;56.40;;;;;;5064943;28;20094;-60
2021/01/17 04:35:06;;;;;;;8.32;2.15;;;27.50;58.00;;;;;;5064594;28;20036;-63
2021/01/17 04:37:34;;;;;;;18.77;3.75;;;27.50;58.50;;;;;;5071297;28;20183;-62
2021/01/17 04:40:01;;;;;;;11.88;3.15;;;27.60;57.30;;;;;;5073302;28;20154;-59
2021/01/17 04:42:36;;;;;;;16.73;3.03;;;27.60;56.50;;;;;;5073121;28;20020;-62
2021/01/17 04:45:06;;;;;;;15.93;3.03;;;27.50;55.80;;;;;;5071924;28;20153;-61
2021/01/17 04:47:36;;;;;;;14.45;3.55;;;27.50;57.60;;;;;;5065162;28;20033;-61
2021/01/17 04:50:16;;;;;;;10.00;3.15;;;27.50;57.70;;;;;;5072901;28;20036;-61
2021/01/17 04:53:07;;;;;;;15.20;3.33;;;27.30;59.00;;;;;;5073564;28;20033;-63
2021/01/17 04:55:38;;;;;;;10.48;2.70;;;27.40;58.20;;;;;;5073509;28;20064;-63
2021/01/17 04:58:05;;;;;;;;;;;27.40;60.40;;;;;;5074205;28;20025;-64
2021/01/17 05:00:33;;;;;;;22.83;3.38;;;27.40;57.90;;;;;;5073566;28;19961;-63
2021/01/17 05:03:10;;;;;;;21.52;4.18;;;27.40;58.20;;;;;;5072771;28;20032;-58
2021/01/17 05:06:11;;;;;;;21.88;3.75;;;27.40;59.00;;;;;;5079087;28;20058;-64
2021/01/17 05:08:46;;;;;;;33.08;15.85;;;27.30;59.30;;;;;;5073231;28;20089;-63
2021/01/17 05:11:34;;;;;;;26.67;12.20;;;27.30;57.90;;;;;;5073182;28;20073;-61
2021/01/17 05:14:15;;;;;;;22.85;12.75;;;27.20;58.20;;;;;;5072390;28;20129;-61
2021/01/17 05:16:47;;;;;;;24.67;15.48;;;27.20;58.30;;;;;;5061133;28;20032;-58
2021/01/17 05:19:19;;;;;;;32.95;23.05;;;27.20;58.70;;;;;;5069022;28;20067;-61
2021/01/17 05:21:51;;;;;;;30.55;20.63;;;27.20;58.60;;;;;;5068624;28;20048;-61
2021/01/17 05:24:21;;;;;;;24.70;17.40;;;27.20;59.00;;;;;;5068296;28;20502;-59
2021/01/17 05:26:54;;;;;;;31.20;20.08;;;27.20;59.10;;;;;;5069454;28;20035;-62
2021/01/17 05:29:24;;;;;;;24.38;19.40;;;27.20;59.10;;;;;;5070036;28;20028;-55
2021/01/17 05:32:03;;;;;;;29.17;21.23;;;27.20;58.50;;;;;;5069878;28;20032;-58
2021/01/17 05:34:31;;;;;;;30.95;20.92;;;27.20;58.40;;;;;;5068276;28;20032;-57
2021/01/17 05:37:12;;;;;;;29.42;22.27;;;27.20;58.10;;;;;;5070138;28;20020;-61
2021/01/17 05:40:02;;;;;;;32.15;22.40;;;27.20;58.30;;;;;;5069226;28;20036;-56
2021/01/17 05:42:39;;;;;;;29.63;22.23;;;27.20;58.60;;;;;;5062600;28;20040;-63
2021/01/17 05:45:21;;;;;;;26.63;19.60;;;27.20;58.70;;;;;;5066189;28;20024;-60
2021/01/17 05:48:00;;;;;;;27.98;22.05;;;27.20;58.70;;;;;;5069552;28;20036;-58
2021/01/17 05:50:31;;;;;;;25.17;19.77;;;27.20;58.60;;;;;;5068498;28;20568;-62
2021/01/17 05:53:04;;;;;;;26.63;18.05;;;27.20;58.00;;;;;;5064112;28;20037;-57
2021/01/17 05:55:34;;;;;;;32.53;22.20;;;27.20;57.30;;;;;;5069186;28;20040;-58
2021/01/17 05:58:30;;;;;;;33.10;20.63;;;27.20;58.00;;;;;;5068649;28;20506;-57
2021/01/17 06:00:58;;;;;;;19.30;15.52;;;27.20;58.10;;;;;;5067985;28;20029;-59
2021/01/17 06:03:30;;;;;;;23.02;15.18;;;27.10;58.00;;;;;;5062138;28;20407;-64
2021/01/17 06:06:05;;;;;;;23.50;14.70;;;27.10;58.00;;;;;;5068063;28;20406;-61
2021/01/17 06:08:34;;;;;;;19.88;12.52;;;27.10;58.80;;;;;;5068756;28;20044;-54
2021/01/17 06:11:14;;;;;;;19.98;13.43;;;27.10;58.00;;;;;;5068382;28;20036;-62
2021/01/17 06:13:43;;;;;;;15.02;11.75;;;27.10;57.60;;;;;;5061788;28;20048;-60
2021/01/17 06:16:33;;;;;;;16.85;11.98;;;27.10;58.10;;;;;;5067240;28;20134;-63
2021/01/17 06:19:08;;;;;;;16.15;11.10;;;27.10;58.10;;;;;;5067832;28;20032;-63
2021/01/17 06:21:37;;;;;;;14.50;10.68;;;27.10;57.70;;;;;;5067839;28;20121;-60
2021/01/17 06:24:09;;;;;;;20.33;11.27;;;27.10;57.80;;;;;;5064166;28;20024;-60
2021/01/17 06:26:41;;;;;;;14.15;10.35;;;27.10;57.90;;;;;;5068929;28;20420;-61
2021/01/17 06:29:10;;;;;;;14.00;9.82;;;27.10;58.10;;;;;;5068206;28;20035;-61
2021/01/17 06:31:40;;;;;;;16.17;9.35;;;27.10;58.00;;;;;;5068554;28;20041;-63
2021/01/17 06:34:15;;;;;;;14.40;10.65;;;27.10;57.50;;;;;;5065643;28;20111;-57
2021/01/17 06:36:47;;;;;;;15.93;8.48;;;27.00;58.00;;;;;;5067927;28;20025;-57
2021/01/17 06:39:25;;;;;;;12.73;8.80;;;27.00;57.80;;;;;;5068644;28;20040;-56
2021/01/17 06:41:57;;;;;;;10.35;7.38;;;27.00;57.90;;;;;;5067543;28;20579;-55
2021/01/17 06:44:34;;;;;;;15.05;8.07;;;26.90;57.20;;;;;;5064663;28;20047;-57
2021/01/17 06:47:02;;;;;;;12.98;7.63;;;26.90;57.30;;;;;;5065898;28;20037;-56
2021/01/17 06:49:36;;;;;;;12.35;7.63;;;26.80;57.80;;;;;;5068125;28;20057;-58
2021/01/17 06:52:05;;;;;;;10.48;7.13;;;26.90;57.80;;;;;;5064540;28;20045;-56
2021/01/17 06:54:34;;;;;;;11.93;7.72;;;26.80;57.40;;;;;;5066792;28;20478;-57
2021/01/17 06:57:03;;;;;;;12.77;7.93;;;26.80;58.00;;;;;;5068870;28;20174;-58
2021/01/17 06:59:59;;;;;;;14.32;7.35;;;26.80;57.90;;;;;;5068402;28;20057;-61
2021/01/17 07:02:28;;;;;;;15.60;8.30;;;26.70;58.00;;;;;;5054852;28;20045;-60
2021/01/17 07:05:04;;;;;;;12.27;7.78;;;26.70;57.90;;;;;;5068364;28;20037;-60
2021/01/17 07:08:02;;;;;;;15.20;8.43;;;26.70;58.20;;;;;;5064796;28;20117;-61
2021/01/17 07:10:39;;;;;;;24.13;9.93;;;26.60;59.20;;;;;;5068224;28;20016;-58
2021/01/17 07:13:08;;;;;;;29.90;13.50;;;26.60;59.70;;;;;;5062192;28;20103;-55
2021/01/17 07:15:38;;;;;;;25.95;11.20;;;26.60;59.50;;;;;;5067893;28;20074;-57
2021/01/17 07:18:13;;;;;;;36.60;11.65;;;26.60;59.40;;;;;;5064846;28;20068;-60
2021/01/17 07:20:48;;;;;;;30.33;11.82;;;26.60;59.50;;;;;;5063733;28;20525;-52
2021/01/17 07:23:19;;;;;;;24.63;10.30;;;26.60;59.70;;;;;;5060054;28;20515;-63
2021/01/17 07:25:49;;;;;;;25.58;11.25;;;26.50;59.80;;;;;;5068357;28;20032;-59
2021/01/17 07:28:22;;;;;;;22.00;10.30;;;26.50;60.00;;;;;;5067366;28;20036;-52
2021/01/17 07:31:02;;;;;;;22.48;10.68;;;26.50;59.80;;;;;;5068301;28;20017;-54
2021/01/17 07:33:36;;;;;;;23.33;10.00;;;26.50;59.80;;;;;;5064015;28;20140;-61
2021/01/17 07:36:05;;;;;;;25.88;10.95;;;26.40;59.90;;;;;;5068604;28;21114;-58
2021/01/17 07:38:35;;;;;;;22.45;10.27;;;26.40;60.20;;;;;;5067870;28;20115;-51
2021/01/17 07:41:04;;;;;;;24.42;9.93;;;26.40;60.30;;;;;;5066994;28;20032;-59
2021/01/17 07:43:42;;;;;;;22.70;10.48;;;26.40;60.20;;;;;;5063944;28;20032;-63
2021/01/17 07:46:18;;;;;;;22.73;10.15;;;26.40;60.20;;;;;;5066198;28;20412;-59
2021/01/17 07:48:47;;;;;;;24.52;9.73;;;26.40;60.40;;;;;;5070258;28;20108;-57
2021/01/17 07:51:16;;;;;;;25.58;9.40;;;26.30;60.00;;;;;;5070210;28;20020;-62
2021/01/17 07:54:23;;;;;;;23.38;9.75;;;26.30;60.20;;;;;;5067730;28;20111;-60
2021/01/17 07:56:52;;;;;;;23.60;8.93;;;26.30;60.40;;;;;;5070038;28;20025;-61
2021/01/17 07:59:27;;;;;;;18.88;9.15;;;26.30;60.60;;;;;;5071489;28;20040;-61
2021/01/17 08:01:56;;;;;;;23.83;8.98;;;26.30;60.00;;;;;;5071829;28;20024;-61
2021/01/17 08:04:25;;;;;;;17.50;8.32;;;26.20;59.90;;;;;;5067479;28;20097;-59
2021/01/17 08:06:57;;;;;;;16.27;8.55;;;26.20;60.00;;;;;;5070912;28;20016;-60
2021/01/17 08:10:04;;;;;;;17.55;7.78;;;26.20;59.90;;;;;;5071088;28;20024;-63
2021/01/17 08:12:36;;;;;;;15.07;7.72;;;26.10;59.00;;;;;;5023540;28;20053;-61
2021/01/17 08:15:17;;;;;;;20.67;8.10;;;26.10;60.50;;;;;;5064771;28;20048;-59
2021/01/17 08:17:45;;;;;;;15.02;7.32;;;26.10;60.30;;;;;;5070609;28;20056;-58
2021/01/17 08:20:22;;;;;;;17.50;7.95;;;26.10;60.50;;;;;;5071234;28;20391;-56
2021/01/17 08:23:01;;;;;;;17.20;7.53;;;26.10;60.60;;;;;;5066130;28;20154;-61
2021/01/17 08:25:48;;;;;;;13.63;6.70;;;26.10;60.70;;;;;;5070836;28;20114;-55
2021/01/17 08:28:36;;;;;;;17.40;6.68;;;26.00;60.50;;;;;;5071273;28;20029;-58
2021/01/17 08:31:34;;;;;;;14.45;6.80;;;26.00;60.50;;;;;;5068841;28;20356;-57
2021/01/17 08:34:09;;;;;;;14.80;5.82;;;26.00;60.70;;;;;;5066584;28;20027;-59
2021/01/17 08:36:36;;;;;;;14.27;6.35;;;26.00;60.80;;;;;;5069594;28;20074;-59
2021/01/17 08:39:04;;;;;;;12.73;6.15;;;25.90;60.70;;;;;;5067810;28;20040;-57
2021/01/17 08:41:32;;;;;;;12.02;5.45;;;25.90;60.80;;;;;;5069971;28;20527;-58
2021/01/17 08:43:59;;;;;;;15.75;5.80;;;25.90;60.80;;;;;;5067006;28;20020;-60
2021/01/17 08:46:40;;;;;;;18.92;7.13;;;25.90;60.70;;;;;;5068435;28;20570;-60
2021/01/17 08:49:08;;;;;;;13.98;5.88;;;25.80;60.60;;;;;;5061169;28;20051;-57
2021/01/17 08:51:36;;;;;;;12.93;5.35;;;25.80;60.80;;;;;;5070305;28;20130;-51
2021/01/17 08:54:25;;;;;;;11.70;5.63;;;25.80;60.60;;;;;;5065627;28;20024;-60
2021/01/17 08:56:53;;;;;;;12.07;5.50;;;25.80;60.70;;;;;;5072458;28;20379;-61
2021/01/17 08:59:38;;;;;;;15.05;5.97;;;25.70;60.60;;;;;;5072819;28;20479;-61
2021/01/17 09:02:05;;;;;;;9.65;4.80;;;25.70;60.30;;;;;;5073577;28;20021;-64
2021/01/17 09:04:33;;;;;;;9.05;4.60;;;25.70;60.20;;;;;;5073442;28;20131;-60
2021/01/17 09:07:00;;;;;;;10.63;4.65;;;25.70;60.00;;;;;;5073399;28;20024;-61
2021/01/17 09:09:28;;;;;;;10.05;4.22;;;25.60;60.70;;;;;;5073054;28;20509;-62
2021/01/17 09:12:11;;;;;;;9.32;4.32;;;25.70;59.90;;;;;;5073501;28;20089;-58
2021/01/17 09:14:38;;;;;;;12.50;5.15;;;25.60;59.90;;;;;;5073456;28;20364;-60
2021/01/17 09:17:12;;;;;;;10.27;4.25;;;25.50;60.20;;;;;;5073542;28;20016;-57
2021/01/17 09:19:42;;;;;;;8.55;3.95;;;25.50;60.10;;;;;;5072820;28;20045;-60
2021/01/17 09:22:10;;;;;;;8.40;4.00;;;25.50;60.20;;;;;;5072403;28;20036;-60
2021/01/17 09:24:40;;;;;;;9.43;4.00;;;25.50;60.20;;;;;;5072915;28;20027;-58
2021/01/17 09:27:10;;;;;;;8.75;4.85;;;25.50;60.10;;;;;;5072771;28;20078;-61
2021/01/17 09:29:39;;;;;;;9.57;3.95;;;25.40;60.90;;;;;;5072711;28;20046;-61
2021/01/17 09:32:13;;;;;;;9.18;3.85;;;25.50;60.20;;;;;;5073002;28;20025;-56
2021/01/17 09:35:03;;;;;;;8.88;4.32;;;25.40;59.90;;;;;;5073019;28;20028;-62
2021/01/17 09:37:34;;;;;;;12.77;5.38;;;25.40;60.60;;;;;;5072762;28;20237;-61
2021/01/17 09:40:03;;;;;;;11.32;5.20;;;25.40;61.60;;;;;;5073034;28;20025;-61
2021/01/17 09:42:32;;;;;;;9.63;4.68;;;25.40;61.80;;;;;;5072788;28;20398;-62
2021/01/17 09:45:01;;;;;;;11.13;4.78;;;25.30;61.80;;;;;;5072935;28;20028;-58
2021/01/17 09:47:29;;;;;;;10.05;4.97;;;25.30;61.70;;;;;;5072267;28;20164;-61
2021/01/17 09:50:06;;;;;;;10.70;5.18;;;25.30;61.70;;;;;;5056899;28;21187;-53
2021/01/17 09:52:39;;;;;;;11.80;4.82;;;25.30;62.60;;;;;;5066378;28;20024;-56
2021/01/17 09:55:13;;;;;;;9.35;4.60;;;25.30;62.50;;;;;;5068128;28;20021;-64
2021/01/17 09:57:41;;;;;;;13.75;5.78;;;25.20;62.20;;;;;;5066746;28;20032;-64
2021/01/17 10:00:15;;;;;;;11.95;4.78;;;25.30;62.10;;;;;;5065902;28;20028;-60
2021/01/17 10:02:44;;;;;;;13.77;5.45;;;25.20;61.90;;;;;;5068971;28;20036;-64
2021/01/17 10:05:12;;;;;;;8.48;4.55;;;25.20;62.00;;;;;;5065618;28;20395;-61
2021/01/17 10:07:39;;;;;;;11.02;5.00;;;25.20;61.80;;;;;;5066222;28;20025;-63
2021/01/17 10:10:11;;;;;;;9.23;3.97;;;25.20;61.60;;;;;;5065426;28;20042;-62
2021/01/17 10:12:38;;;;;;;9.88;4.55;;;25.20;61.50;;;;;;5069101;28;20543;-60
2021/01/17 10:15:13;;;;;;;11.20;4.85;;;25.20;61.60;;;;;;5067619;28;20028;-50
2021/01/17 10:17:48;;;;;;;10.20;4.60;;;25.20;61.60;;;;;;5067598;28;20111;-52
2021/01/17 10:20:29;;;;;;;10.40;4.60;;;25.20;61.60;;;;;;5066041;28;20036;-54
2021/01/17 10:23:08;;;;;;;9.48;4.57;;;25.20;61.50;;;;;;5069219;28;20032;-56
2021/01/17 10:25:36;;;;;;;10.00;4.57;;;25.20;61.50;;;;;;5068012;28;20036;-61
2021/01/17 10:28:09;;;;;;;10.40;4.45;;;25.20;62.10;;;;;;5068683;28;20028;-56
2021/01/17 10:30:40;;;;;;;9.57;4.50;;;25.20;61.40;;;;;;5065029;28;20523;-63
2021/01/17 10:33:14;;;;;;;8.50;3.72;;;25.20;61.60;;;;;;5067817;28;20110;-58
2021/01/17 10:35:49;;;;;;;10.90;3.88;;;25.20;61.50;;;;;;5068255;28;20099;-55
2021/01/17 10:38:17;;;;;;;11.15;4.22;;;25.20;61.60;;;;;;5068146;28;20052;-61
2021/01/17 10:40:46;;;;;;;11.13;4.57;;;25.20;61.60;;;;;;5065938;28;20052;-59
2021/01/17 10:43:36;;;;;;;10.98;3.95;;;25.20;62.20;;;;;;5068898;28;20036;-55
2021/01/17 10:46:20;;;;;;;9.10;3.63;;;25.20;61.70;;;;;;5067446;28;20067;-64
2021/01/17 10:49:05;;;;;;;10.18;4.25;;;25.20;61.50;;;;;;5063788;28;20040;-61
2021/01/17 10:51:51;;;;;;;7.55;3.90;;;25.20;61.80;;;;;;5066238;28;20025;-57
2021/01/17 10:54:32;;;;;;;9.82;4.00;;;25.20;61.80;;;;;;5068123;28;20108;-63
2021/01/17 10:57:07;;;;;;;8.30;3.85;;;25.20;61.70;;;;;;5066445;28;20035;-57
2021/01/17 10:59:37;;;;;;;8.85;3.90;;;25.20;61.50;;;;;;5062607;28;20493;-51
2021/01/17 11:02:04;;;;;;;9.57;3.92;;;25.20;61.50;;;;;;5067079;28;20429;-57
2021/01/17 11:04:40;;;;;;;7.80;3.50;;;25.20;61.90;;;;;;5068069;28;20048;-56
2021/01/17 11:07:07;;;;;;;10.45;3.90;;;25.20;61.80;;;;;;5068352;28;20031;-54
2021/01/17 11:09:35;;;;;;;9.98;4.00;;;25.20;61.70;;;;;;5063897;28;20480;-62
2021/01/17 11:12:03;;;;;;;8.98;3.92;;;25.20;61.90;;;;;;5068202;28;20091;-57
2021/01/17 11:14:31;;;;;;;10.43;4.40;;;25.20;62.00;;;;;;5067393;28;20494;-52
2021/01/17 11:17:04;;;;;;;10.05;3.75;;;25.20;62.10;;;;;;5067618;28;20052;-58
2021/01/17 11:19:43;;;;;;;13.73;4.05;;;25.20;62.10;;;;;;5064363;28;20383;-60
2021/01/17 11:22:10;;;;;;;8.73;3.13;;;25.20;61.90;;;;;;5069764;28;20052;-54
2021/01/17 11:24:45;;;;;;;8.48;3.67;;;25.20;61.80;;;;;;5069082;28;20107;-54
2021/01/17 11:27:19;;;;;;;6.47;3.20;;;25.20;61.70;;;;;;5072481;28;20031;-55
2021/01/17 11:29:48;;;;;;;5.95;3.00;;;25.10;61.60;;;;;;5068104;28;20081;-54
2021/01/17 11:32:15;;;;;;;7.60;3.28;;;25.10;61.70;;;;;;5070515;28;20240;-55
2021/01/17 11:34:43;;;;;;;9.65;4.00;;;25.10;61.70;;;;;;5071690;28;20025;-57
2021/01/17 11:37:11;;;;;;;6.63;3.22;;;25.10;61.60;;;;;;5071821;28;20032;-58
2021/01/17 11:39:39;;;;;;;7.43;3.65;;;25.10;61.70;;;;;;5067167;28;20050;-55
2021/01/17 11:42:16;;;;;;;7.03;3.03;;;25.10;61.90;;;;;;5072224;28;20470;-56
2021/01/17 11:44:54;;;;;;;7.28;3.03;;;25.10;61.80;;;;;;5070971;28;20048;-55
2021/01/17 11:47:36;;;;;;;8.60;3.47;;;25.10;61.90;;;;;;5071031;28;20029;-57
2021/01/17 11:50:16;;;;;;;;;;;25.00;61.70;;;;;;5066449;28;20030;-60
2021/01/17 11:52:45;;;;;;;7.88;3.53;;;25.10;61.90;;;;;;5071649;28;19905;-55
2021/01/17 11:55:18;;;;;;;10.32;3.88;;;25.10;62.00;;;;;;5071116;28;20375;-57
2021/01/17 11:57:45;;;;;;;5.85;2.90;;;25.10;62.00;;;;;;5070624;28;20021;-58
2021/01/17 12:00:15;;;;;;;10.95;4.00;;;25.00;61.80;;;;;;5068568;28;20055;-59
2021/01/17 12:02:43;;;;;;;8.63;3.10;;;25.00;61.90;;;;;;5074843;28;20332;-63
2021/01/17 12:05:15;;;;;;;6.63;2.90;;;25.00;62.00;;;;;;5074555;28;20086;-55
2021/01/17 12:08:01;;;;;;;9.82;3.95;;;25.00;62.10;;;;;;5074942;28;20347;-60
2021/01/17 12:10:30;;;;;;;7.90;3.33;;;25.00;62.20;;;;;;5074660;28;20029;-54
2021/01/17 12:12:57;;;;;;;5.90;3.33;;;25.00;62.30;;;;;;5074881;28;20032;-60
2021/01/17 12:15:24;;;;;;;6.35;2.65;;;25.00;62.50;;;;;;5074773;28;20070;-54
2021/01/17 12:17:57;;;;;;;7.50;3.00;;;25.00;62.30;;;;;;5073609;28;20470;-59
2021/01/17 12:20:25;;;;;;;7.50;3.15;;;24.90;62.30;;;;;;5073993;28;20082;-58
2021/01/17 12:22:52;;;;;;;7.53;2.92;;;24.90;62.00;;;;;;5074709;28;20351;-57
2021/01/17 12:25:20;;;;;;;8.30;3.67;;;24.90;62.50;;;;;;5074542;28;20078;-62
2021/01/17 12:27:47;;;;;;;8.45;4.05;;;24.90;62.30;;;;;;5074373;28;20056;-62
2021/01/17 12:30:17;;;;;;;5.10;2.67;;;24.90;62.40;;;;;;5074119;28;20463;-61
2021/01/17 12:32:44;;;;;;;7.80;3.38;;;24.90;62.30;;;;;;5073019;28;20029;-57
2021/01/17 12:35:12;;;;;;;7.07;3.17;;;24.90;62.40;;;;;;5074303;28;20044;-58
2021/01/17 12:37:39;;;;;;;7.40;2.80;;;24.90;62.40;;;;;;5073924;28;20020;-59
2021/01/17 12:40:07;;;;;;;6.13;2.63;;;24.90;62.40;;;;;;5074385;28;20132;-61
2021/01/17 12:42:35;;;;;;;9.57;2.97;;;24.90;62.50;;;;;;5074346;28;20017;-62
2021/01/17 12:45:03;;;;;;;5.80;2.95;;;24.90;62.40;;;;;;5074146;28;20052;-62
2021/01/17 12:47:30;;;;;;;5.22;2.33;;;24.90;62.40;;;;;;5073708;28;20063;-59
2021/01/17 12:49:57;;;;;;;7.18;2.63;;;24.90;62.30;;;;;;5074078;28;20119;-60
2021/01/17 12:52:25;;;;;;;7.47;2.90;;;24.80;62.30;;;;;;5073990;28;20042;-57
2021/01/17 12:54:52;;;;;;;7.85;2.80;;;24.90;62.40;;;;;;5073953;28;20038;-59
2021/01/17 12:57:19;;;;;;;6.60;2.65;;;24.80;62.30;;;;;;5073817;28;20028;-59
2021/01/17 12:59:47;;;;;;;5.72;2.65;;;24.80;62.30;;;;;;5073613;28;20107;-58
2021/01/17 13:02:14;;;;;;;5.88;2.45;;;24.80;62.30;;;;;;5064343;28;20025;-58
2021/01/17 13:04:41;;;;;;;6.57;2.70;;;24.80;62.30;;;;;;5070457;28;21400;-53
2021/01/17 13:07:09;;;;;;;7.30;3.00;;;24.80;62.30;;;;;;5069937;28;20017;-53